sensor_id;sensor_type;location;lat;lon;timestamp;pressure;altitude;pressure_sealevel;temperature;humidity
1736;BME280;865;53.672;10.250;2022-12-18T00:01:19;102521.75;;;-6.28;100.00
1736;BME280;865;53.672;10.250;2022-12-18T00:03:46;102529.28;;;-6.29;100.00
1736;BME280;865;53.672;10.250;2022-12-18T00:06:14;102539.06;;;-6.34;100.00
1736;BME280;865;53.672;10.250;2022-12-18T00:08:41;102551.00;;;-6.33;100.00
1736;BME280;865;53.672;10.250;2022-12-18T00:11:11;102543.00;;;-6.37;100.00
1736;BME280;865;53.672;10.250;2022-12-18T00:13:38;102547.63;;;-6.44;100.00
1736;BME280;865;53.672;10.250;2022-12-18T00:16:07;102549.81;;;-6.48;100.00
1736;BME280;865;53.672;10.250;2022-12-18T00:18:34;102547.13;;;-6.50;100.00
1736;BME280;865;53.672;10.250;2022-12-18T00:21:04;102540.72;;;-6.56;100.00
1736;BME280;865;53.672;10.250;2022-12-18T00:23:33;102536.81;;;-6.63;100.00
1736;BME280;865;53.672;10.250;2022-12-18T00:26:10;102530.72;;;-6.65;100.00
1736;BME280;865;53.672;10.250;2022-12-18T00:28:37;102544.03;;;-6.68;100.00
1736;BME280;865;53.672;10.250;2022-12-18T00:31:05;102536.44;;;-6.68;100.00
1736;BME280;865;53.672;10.250;2022-12-18T00:33:33;102538.97;;;-6.68;100.00
1736;BME280;865;53.672;10.250;2022-12-18T00:36:04;102549.66;;;-6.72;100.00
1736;BME280;865;53.672;10.250;2022-12-18T00:38:32;102548.50;;;-6.75;100.00
1736;BME280;865;53.672;10.250;2022-12-18T00:40:58;102553.06;;;-6.71;100.00
1736;BME280;865;53.672;10.250;2022-12-18T00:43:25;102559.56;;;-6.75;100.00
1736;BME280;865;53.672;10.250;2022-12-18T00:45:52;102555.00;;;-6.79;100.00
1736;BME280;865;53.672;10.250;2022-12-18T00:48:19;102565.66;;;-6.83;100.00
1736;BME280;865;53.672;10.250;2022-12-18T00:50:48;102564.53;;;-6.86;100.00
1736;BME280;865;53.672;10.250;2022-12-18T00:53:14;102561.38;;;-6.94;100.00
1736;BME280;865;53.672;10.250;2022-12-18T00:55:41;102558.06;;;-6.93;100.00
1736;BME280;865;53.672;10.250;2022-12-18T00:58:08;102552.75;;;-6.96;100.00
1736;BME280;865;53.672;10.250;2022-12-18T01:00:35;102552.75;;;-6.96;100.00
1736;BME280;865;53.672;10.250;2022-12-18T01:03:02;102558.97;;;-7.03;100.00
1736;BME280;865;53.672;10.250;2022-12-18T01:05:29;102558.50;;;-7.09;100.00
1736;BME280;865;53.672;10.250;2022-12-18T01:07:56;102559.91;;;-7.13;100.00
1736;BME280;865;53.672;10.250;2022-12-18T01:10:23;102559.03;;;-7.13;100.00
1736;BME280;865;53.672;10.250;2022-12-18T01:12:50;102557.22;;;-7.14;100.00
1736;BME280;865;53.672;10.250;2022-12-18T01:15:17;102564.97;;;-7.13;100.00
1736;BME280;865;53.672;10.250;2022-12-18T01:17:44;102562.97;;;-7.17;100.00
1736;BME280;865;53.672;10.250;2022-12-18T01:20:11;102561.81;;;-7.20;100.00
1736;BME280;865;53.672;10.250;2022-12-18T01:22:38;102567.88;;;-7.18;100.00
1736;BME280;865;53.672;10.250;2022-12-18T01:25:05;102578.66;;;-7.21;100.00
1736;BME280;865;53.672;10.250;2022-12-18T01:27:33;102578.19;;;-7.17;100.00
1736;BME280;865;53.672;10.250;2022-12-18T01:30:00;102575.75;;;-7.15;100.00
1736;BME280;865;53.672;10.250;2022-12-18T01:32:29;102566.00;;;-7.21;100.00
1736;BME280;865;53.672;10.250;2022-12-18T01:34:56;102561.31;;;-7.16;100.00
1736;BME280;865;53.672;10.250;2022-12-18T01:37:22;102549.13;;;-7.20;100.00
1736;BME280;865;53.672;10.250;2022-12-18T01:39:49;102541.75;;;-7.17;100.00
1736;BME280;865;53.672;10.250;2022-12-18T01:42:16;102542.78;;;-7.15;100.00
1736;BME280;865;53.672;10.250;2022-12-18T01:47:39;102553.94;;;-7.13;100.00
1736;BME280;865;53.672;10.250;2022-12-18T01:50:20;102563.94;;;-7.15;100.00
1736;BME280;865;53.672;10.250;2022-12-18T01:52:50;102568.66;;;-7.19;100.00
1736;BME280;865;53.672;10.250;2022-12-18T01:55:19;102566.00;;;-7.21;100.00
1736;BME280;865;53.672;10.250;2022-12-18T01:57:47;102565.09;;;-7.21;100.00
1736;BME280;865;53.672;10.250;2022-12-18T02:00:17;102573.84;;;-7.18;100.00
1736;BME280;865;53.672;10.250;2022-12-18T02:02:45;102586.78;;;-7.15;100.00
1736;BME280;865;53.672;10.250;2022-12-18T02:05:14;102590.72;;;-7.18;100.00
1736;BME280;865;53.672;10.250;2022-12-18T02:07:45;102593.63;;;-7.14;100.00
1736;BME280;865;53.672;10.250;2022-12-18T02:10:20;102594.28;;;-7.16;100.00
1736;BME280;865;53.672;10.250;2022-12-18T02:13:03;102584.38;;;-7.23;100.00
1736;BME280;865;53.672;10.250;2022-12-18T02:15:42;102591.47;;;-7.19;100.00
1736;BME280;865;53.672;10.250;2022-12-18T02:18:15;102581.09;;;-7.22;100.00
1736;BME280;865;53.672;10.250;2022-12-18T02:26:49;102578.19;;;-7.37;100.00
1736;BME280;865;53.672;10.250;2022-12-18T02:29:26;102575.75;;;-7.36;100.00
1736;BME280;865;53.672;10.250;2022-12-18T02:31:57;102585.66;;;-7.39;100.00
1736;BME280;865;53.672;10.250;2022-12-18T02:34:28;102586.03;;;-7.44;100.00
1736;BME280;865;53.672;10.250;2022-12-18T02:36:57;102584.63;;;-7.41;100.00
1736;BME280;865;53.672;10.250;2022-12-18T02:39:26;102592.75;;;-7.35;100.00
1736;BME280;865;53.672;10.250;2022-12-18T02:41:55;102596.03;;;-7.36;100.00
1736;BME280;865;53.672;10.250;2022-12-18T02:44:21;102598.31;;;-7.39;100.00
1736;BME280;865;53.672;10.250;2022-12-18T02:46:52;102606.19;;;-7.36;100.00
1736;BME280;865;53.672;10.250;2022-12-18T02:49:35;102611.25;;;-7.36;100.00
1736;BME280;865;53.672;10.250;2022-12-18T02:52:16;102607.06;;;-7.35;100.00
1736;BME280;865;53.672;10.250;2022-12-18T02:58:26;102611.00;;;-7.39;100.00
1736;BME280;865;53.672;10.250;2022-12-18T03:03:36;102611.63;;;-7.41;100.00
1736;BME280;865;53.672;10.250;2022-12-18T03:06:10;102612.25;;;-7.44;100.00
1736;BME280;865;53.672;10.250;2022-12-18T03:08:44;102614.16;;;-7.51;100.00
1736;BME280;865;53.672;10.250;2022-12-18T03:11:14;102616.06;;;-7.49;100.00
1736;BME280;865;53.672;10.250;2022-12-18T03:13:50;102610.22;;;-7.48;100.00
1736;BME280;865;53.672;10.250;2022-12-18T03:16:24;102602.78;;;-7.46;100.00
1736;BME280;865;53.672;10.250;2022-12-18T03:18:58;102597.56;;;-7.48;100.00
1736;BME280;865;53.672;10.250;2022-12-18T03:21:28;102603.88;;;-7.53;100.00
1736;BME280;865;53.672;10.250;2022-12-18T03:23:58;102602.63;;;-7.58;100.00
1736;BME280;865;53.672;10.250;2022-12-18T03:26:26;102602.63;;;-7.58;100.00
1736;BME280;865;53.672;10.250;2022-12-18T03:29:08;102610.63;;;-7.64;100.00
1736;BME280;865;53.672;10.250;2022-12-18T03:31:37;102605.41;;;-7.65;100.00
1736;BME280;865;53.672;10.250;2022-12-18T03:34:09;102608.31;;;-7.71;100.00
1736;BME280;865;53.672;10.250;2022-12-18T03:36:39;102605.66;;;-7.72;100.00
1736;BME280;865;53.672;10.250;2022-12-18T03:39:06;102617.56;;;-7.71;100.00
1736;BME280;865;53.672;10.250;2022-12-18T03:41:44;102622.25;;;-7.66;100.00
1736;BME280;865;53.672;10.250;2022-12-18T03:47:11;102611.72;;;-7.70;100.00
1736;BME280;865;53.672;10.250;2022-12-18T03:49:56;102612.50;;;-7.82;100.00
1736;BME280;865;53.672;10.250;2022-12-18T03:52:33;102608.41;;;-7.80;100.00
1736;BME280;865;53.672;10.250;2022-12-18T03:55:03;102617.56;;;-7.82;100.00
1736;BME280;865;53.672;10.250;2022-12-18T03:57:32;102613.00;;;-7.75;100.00
1736;BME280;865;53.672;10.250;2022-12-18T04:00:03;102607.69;;;-7.78;100.00
1736;BME280;865;53.672;10.250;2022-12-18T04:02:31;102605.63;;;-7.83;100.00
1736;BME280;865;53.672;10.250;2022-12-18T04:05:00;102594.63;;;-7.83;100.00
1736;BME280;865;53.672;10.250;2022-12-18T04:07:28;102598.78;;;-7.84;100.00
1736;BME280;865;53.672;10.250;2022-12-18T04:09:56;102590.56;;;-7.81;100.00
1736;BME280;865;53.672;10.250;2022-12-18T04:12:25;102596.25;;;-7.84;100.00
1736;BME280;865;53.672;10.250;2022-12-18T04:14:54;102592.97;;;-7.83;100.00
1736;BME280;865;53.672;10.250;2022-12-18T04:17:21;102606.91;;;-7.77;100.00
1736;BME280;865;53.672;10.250;2022-12-18T04:19:48;102603.25;;;-7.81;100.00
1736;BME280;865;53.672;10.250;2022-12-18T04:22:15;102610.69;;;-7.83;100.00
1736;BME280;865;53.672;10.250;2022-12-18T04:24:41;102599.06;;;-7.81;100.00
1736;BME280;865;53.672;10.250;2022-12-18T04:27:07;102600.72;;;-7.81;100.00
1736;BME280;865;53.672;10.250;2022-12-18T04:29:33;102609.19;;;-7.81;100.00
1736;BME280;865;53.672;10.250;2022-12-18T04:32:00;102607.03;;;-7.86;100.00
1736;BME280;865;53.672;10.250;2022-12-18T04:34:26;102613.72;;;-7.87;100.00
1736;BME280;865;53.672;10.250;2022-12-18T04:36:53;102610.44;;;-7.86;100.00
1736;BME280;865;53.672;10.250;2022-12-18T04:39:19;102616.78;;;-7.81;100.00
1736;BME280;865;53.672;10.250;2022-12-18T04:41:45;102609.06;;;-7.82;100.00
1736;BME280;865;53.672;10.250;2022-12-18T04:44:12;102610.84;;;-7.81;100.00
1736;BME280;865;53.672;10.250;2022-12-18T04:46:38;102619.06;;;-7.84;100.00
1736;BME280;865;53.672;10.250;2022-12-18T04:49:04;102617.78;;;-7.89;100.00
1736;BME280;865;53.672;10.250;2022-12-18T04:51:31;102608.66;;;-7.87;100.00
1736;BME280;865;53.672;10.250;2022-12-18T04:53:57;102607.91;;;-7.86;100.00
1736;BME280;865;53.672;10.250;2022-12-18T04:56:23;102611.19;;;-7.87;100.00
1736;BME280;865;53.672;10.250;2022-12-18T04:58:50;102604.22;;;-7.89;100.00
1736;BME280;865;53.672;10.250;2022-12-18T05:01:17;102607.28;;;-7.93;100.00
1736;BME280;865;53.672;10.250;2022-12-18T05:03:44;102612.81;;;-7.97;100.00
1736;BME280;865;53.672;10.250;2022-12-18T05:06:11;102609.91;;;-7.92;100.00
1736;BME280;865;53.672;10.250;2022-12-18T05:08:38;102617.91;;;-7.87;100.00
1736;BME280;865;53.672;10.250;2022-12-18T05:11:06;102626.25;;;-7.88;100.00
1736;BME280;865;53.672;10.250;2022-12-18T05:13:34;102630.44;;;-7.89;100.00
1736;BME280;865;53.672;10.250;2022-12-18T05:16:02;102632.72;;;-7.92;100.00
1736;BME280;865;53.672;10.250;2022-12-18T05:18:28;102622.09;;;-7.88;100.00
1736;BME280;865;53.672;10.250;2022-12-18T05:20:55;102628.31;;;-7.84;100.00
1736;BME280;865;53.672;10.250;2022-12-18T05:23:22;102632.50;;;-7.85;100.00
1736;BME280;865;53.672;10.250;2022-12-18T05:25:54;102640.19;;;-7.83;100.00
1736;BME280;865;53.672;10.250;2022-12-18T05:28:22;102641.34;;;-7.80;100.00
1736;BME280;865;53.672;10.250;2022-12-18T05:30:50;102647.44;;;-7.77;100.00
1736;BME280;865;53.672;10.250;2022-12-18T05:33:18;102651.63;;;-7.78;100.00
1736;BME280;865;53.672;10.250;2022-12-18T05:35:44;102643.50;;;-7.84;100.00
1736;BME280;865;53.672;10.250;2022-12-18T05:38:15;102644.88;;;-7.88;100.00
1736;BME280;865;53.672;10.250;2022-12-18T05:40:42;102647.69;;;-7.85;100.00
1736;BME280;865;53.672;10.250;2022-12-18T05:43:10;102651.09;;;-7.84;100.00
1736;BME280;865;53.672;10.250;2022-12-18T05:45:42;102655.41;;;-7.83;100.00
1736;BME280;865;53.672;10.250;2022-12-18T05:48:09;102657.41;;;-7.89;100.00
1736;BME280;865;53.672;10.250;2022-12-18T05:50:36;102648.69;;;-7.83;100.00
1736;BME280;865;53.672;10.250;2022-12-18T05:53:03;102654.41;;;-7.85;100.00
1736;BME280;865;53.672;10.250;2022-12-18T05:55:33;102650.59;;;-7.80;100.00
1736;BME280;865;53.672;10.250;2022-12-18T05:58:01;102644.63;;;-7.81;100.00
1736;BME280;865;53.672;10.250;2022-12-18T06:00:28;102645.63;;;-7.89;100.00
1736;BME280;865;53.672;10.250;2022-12-18T06:02:54;102652.13;;;-7.82;100.00
1736;BME280;865;53.672;10.250;2022-12-18T06:05:21;102651.88;;;-7.85;100.00
1736;BME280;865;53.672;10.250;2022-12-18T06:07:47;102655.13;;;-7.86;100.00
1736;BME280;865;53.672;10.250;2022-12-18T06:10:13;102650.34;;;-7.83;100.00
1736;BME280;865;53.672;10.250;2022-12-18T06:12:40;102655.91;;;-7.87;100.00
1736;BME280;865;53.672;10.250;2022-12-18T06:15:07;102652.50;;;-7.88;100.00
1736;BME280;865;53.672;10.250;2022-12-18T06:17:35;102654.50;;;-7.84;100.00
1736;BME280;865;53.672;10.250;2022-12-18T06:20:02;102657.81;;;-7.85;100.00
1736;BME280;865;53.672;10.250;2022-12-18T06:22:31;102665.53;;;-7.83;100.00
1736;BME280;865;53.672;10.250;2022-12-18T06:24:58;102666.03;;;-7.87;100.00
1736;BME280;865;53.672;10.250;2022-12-18T06:27:25;102675.41;;;-7.86;100.00
1736;BME280;865;53.672;10.250;2022-12-18T06:29:51;102681.09;;;-7.89;100.00
1736;BME280;865;53.672;10.250;2022-12-18T06:32:18;102683.16;;;-7.85;100.00
1736;BME280;865;53.672;10.250;2022-12-18T06:34:44;102675.41;;;-7.86;100.00
1736;BME280;865;53.672;10.250;2022-12-18T06:37:10;102688.06;;;-7.86;100.00
1736;BME280;865;53.672;10.250;2022-12-18T06:39:37;102688.78;;;-7.97;100.00
1736;BME280;865;53.672;10.250;2022-12-18T06:42:03;102692.06;;;-7.98;100.00
1736;BME280;865;53.672;10.250;2022-12-18T06:44:30;102693.72;;;-7.99;100.00
1736;BME280;865;53.672;10.250;2022-12-18T06:46:56;102698.63;;;-8.00;100.00
1736;BME280;865;53.672;10.250;2022-12-18T06:49:22;102687.09;;;-8.07;100.00
1736;BME280;865;53.672;10.250;2022-12-18T06:51:55;102692.03;;;-8.09;100.00
1736;BME280;865;53.672;10.250;2022-12-18T06:54:21;102684.72;;;-8.06;100.00
1736;BME280;865;53.672;10.250;2022-12-18T06:56:49;102682.81;;;-8.08;100.00
1736;BME280;865;53.672;10.250;2022-12-18T06:59:16;102686.44;;;-8.15;100.00
1736;BME280;865;53.672;10.250;2022-12-18T07:01:42;102685.81;;;-8.12;100.00
1736;BME280;865;53.672;10.250;2022-12-18T07:04:09;102691.59;;;-8.23;100.00
1736;BME280;865;53.672;10.250;2022-12-18T07:06:35;102689.19;;;-8.22;100.00
1736;BME280;865;53.672;10.250;2022-12-18T07:09:02;102692.25;;;-8.16;100.00
1736;BME280;865;53.672;10.250;2022-12-18T07:11:28;102689.09;;;-8.13;100.00
1736;BME280;865;53.672;10.250;2022-12-18T07:13:54;102687.97;;;-8.07;100.00
1736;BME280;865;53.672;10.250;2022-12-18T07:16:21;102684.56;;;-8.07;100.00
1736;BME280;865;53.672;10.250;2022-12-18T07:18:52;102687.25;;;-8.06;100.00
1736;BME280;865;53.672;10.250;2022-12-18T07:21:19;102690.88;;;-8.12;100.00
1736;BME280;865;53.672;10.250;2022-12-18T07:23:46;102696.84;;;-8.12;100.00
1736;BME280;865;53.672;10.250;2022-12-18T07:26:15;102696.56;;;-8.15;100.00
1736;BME280;865;53.672;10.250;2022-12-18T07:28:42;102706.91;;;-8.22;100.00
1736;BME280;865;53.672;10.250;2022-12-18T07:31:16;102709.44;;;-8.22;100.00
1736;BME280;865;53.672;10.250;2022-12-18T07:33:43;102717.19;;;-8.20;100.00
1736;BME280;865;53.672;10.250;2022-12-18T07:36:11;102717.63;;;-8.25;100.00
1736;BME280;865;53.672;10.250;2022-12-18T07:38:37;102717.78;;;-8.23;100.00
1736;BME280;865;53.672;10.250;2022-12-18T07:41:12;102725.22;;;-8.25;100.00
1736;BME280;865;53.672;10.250;2022-12-18T07:43:39;102723.19;;;-8.29;100.00
1736;BME280;865;53.672;10.250;2022-12-18T07:46:08;102723.19;;;-8.29;100.00
1736;BME280;865;53.672;10.250;2022-12-18T07:48:35;102729.75;;;-8.31;100.00
1736;BME280;865;53.672;10.250;2022-12-18T07:51:03;102729.47;;;-8.34;100.00
1736;BME280;865;53.672;10.250;2022-12-18T07:53:31;102727.22;;;-8.31;100.00
1736;BME280;865;53.672;10.250;2022-12-18T07:55:59;102731.19;;;-8.24;100.00
1736;BME280;865;53.672;10.250;2022-12-18T07:58:45;102720.44;;;-8.21;100.00
1736;BME280;865;53.672;10.250;2022-12-18T08:01:14;102733.84;;;-8.22;100.00
1736;BME280;865;53.672;10.250;2022-12-18T08:03:40;102722.25;;;-8.20;100.00
1736;BME280;865;53.672;10.250;2022-12-18T08:06:09;102721.47;;;-8.19;100.00
1736;BME280;865;53.672;10.250;2022-12-18T08:08:36;102741.50;;;-8.12;100.00
1736;BME280;865;53.672;10.250;2022-12-18T08:11:03;102736.44;;;-8.12;100.00
1736;BME280;865;53.672;10.250;2022-12-18T08:13:29;102742.78;;;-8.07;100.00
1736;BME280;865;53.672;10.250;2022-12-18T08:16:04;102734.69;;;-8.03;100.00
1736;BME280;865;53.672;10.250;2022-12-18T08:18:33;102736.75;;;-7.99;100.00
1736;BME280;865;53.672;10.250;2022-12-18T08:21:14;102725.25;;;-7.95;100.00
1736;BME280;865;53.672;10.250;2022-12-18T08:23:41;102725.44;;;-7.84;100.00
1736;BME280;865;53.672;10.250;2022-12-18T08:26:11;102721.03;;;-7.76;100.00
1736;BME280;865;53.672;10.250;2022-12-18T08:28:37;102730.03;;;-7.69;100.00
1736;BME280;865;53.672;10.250;2022-12-18T08:31:04;102721.81;;;-7.67;100.00
1736;BME280;865;53.672;10.250;2022-12-18T08:33:32;102722.81;;;-7.65;100.00
1736;BME280;865;53.672;10.250;2022-12-18T08:35:59;102710.06;;;-7.56;100.00
1736;BME280;865;53.672;10.250;2022-12-18T08:38:26;102714.91;;;-7.49;100.00
1736;BME280;865;53.672;10.250;2022-12-18T08:41:06;102713.09;;;-7.50;100.00
1736;BME280;865;53.672;10.250;2022-12-18T08:43:33;102714.13;;;-7.38;100.00
1736;BME280;865;53.672;10.250;2022-12-18T08:46:19;102720.13;;;-7.37;100.00
1736;BME280;865;53.672;10.250;2022-12-18T08:48:46;102720.63;;;-7.31;100.00
1736;BME280;865;53.672;10.250;2022-12-18T08:51:13;102717.84;;;-7.24;100.00
1736;BME280;865;53.672;10.250;2022-12-18T08:53:41;102716.19;;;-7.23;100.00
1736;BME280;865;53.672;10.250;2022-12-18T08:56:08;102710.66;;;-7.19;100.00
1736;BME280;865;53.672;10.250;2022-12-18T08:58:34;102707.84;;;-7.12;100.00
1736;BME280;865;53.672;10.250;2022-12-18T09:01:06;102706.44;;;-7.08;100.00
1736;BME280;865;53.672;10.250;2022-12-18T09:03:33;102703.03;;;-7.09;100.00
1736;BME280;865;53.672;10.250;2022-12-18T09:05:59;102707.47;;;-7.06;100.00
1736;BME280;865;53.672;10.250;2022-12-18T09:08:26;102711.16;;;-7.03;100.00
1736;BME280;865;53.672;10.250;2022-12-18T09:10:53;102711.03;;;-6.94;100.00
1736;BME280;865;53.672;10.250;2022-12-18T09:13:19;102711.28;;;-6.91;100.00
1736;BME280;865;53.672;10.250;2022-12-18T09:15:51;102710.25;;;-6.83;100.00
1736;BME280;865;53.672;10.250;2022-12-18T09:18:20;102710.88;;;-6.75;100.00
1736;BME280;865;53.672;10.250;2022-12-18T09:20:46;102708.09;;;-6.78;100.00
1736;BME280;865;53.672;10.250;2022-12-18T09:23:13;102712.03;;;-6.82;100.00
1736;BME280;865;53.672;10.250;2022-12-18T09:25:40;102717.72;;;-6.84;100.00
1736;BME280;865;53.672;10.250;2022-12-18T09:28:13;102716.47;;;-6.69;100.00
1736;BME280;865;53.672;10.250;2022-12-18T09:30:42;102719.03;;;-6.69;100.00
1736;BME280;865;53.672;10.250;2022-12-18T09:33:09;102715.19;;;-6.64;100.00
1736;BME280;865;53.672;10.250;2022-12-18T09:35:36;102713.63;;;-6.52;100.00
1736;BME280;865;53.672;10.250;2022-12-18T09:38:03;102706.28;;;-6.49;100.00
1736;BME280;865;53.672;10.250;2022-12-18T09:40:34;102710.56;;;-6.37;100.00
1736;BME280;865;53.672;10.250;2022-12-18T09:43:04;102703.72;;;-6.38;100.00
1736;BME280;865;53.672;10.250;2022-12-18T09:45:44;102711.06;;;-6.31;100.00
1736;BME280;865;53.672;10.250;2022-12-18T09:48:42;102712.03;;;-6.19;100.00
1736;BME280;865;53.672;10.250;2022-12-18T09:51:15;102706.31;;;-6.16;100.00
1736;BME280;865;53.672;10.250;2022-12-18T09:53:47;102703.13;;;-6.04;100.00
1736;BME280;865;53.672;10.250;2022-12-18T09:56:18;102705.59;;;-5.93;100.00
1736;BME280;865;53.672;10.250;2022-12-18T09:58:54;102703.94;;;-5.93;100.00
1736;BME280;865;53.672;10.250;2022-12-18T10:01:23;102714.69;;;-5.85;100.00
1736;BME280;865;53.672;10.250;2022-12-18T10:03:52;102709.31;;;-5.78;100.00
1736;BME280;865;53.672;10.250;2022-12-18T10:06:36;102717.94;;;-5.76;100.00
1736;BME280;865;53.672;10.250;2022-12-18T10:09:19;102712.22;;;-5.74;100.00
1736;BME280;865;53.672;10.250;2022-12-18T10:12:00;102703.50;;;-5.65;100.00
1736;BME280;865;53.672;10.250;2022-12-18T10:14:43;102706.66;;;-5.58;100.00
1736;BME280;865;53.672;10.250;2022-12-18T10:17:41;102696.09;;;-5.52;100.00
1736;BME280;865;53.672;10.250;2022-12-18T10:20:27;102697.66;;;-5.42;100.00
1736;BME280;865;53.672;10.250;2022-12-18T10:28:17;102714.00;;;-5.29;100.00
1736;BME280;865;53.672;10.250;2022-12-18T10:30:45;102720.75;;;-5.29;100.00
1736;BME280;865;53.672;10.250;2022-12-18T10:33:20;102727.47;;;-5.30;100.00
1736;BME280;865;53.672;10.250;2022-12-18T10:35:48;102728.38;;;-5.29;100.00
1736;BME280;865;53.672;10.250;2022-12-18T10:43:32;102727.59;;;-5.28;100.00
1736;BME280;865;53.672;10.250;2022-12-18T10:46:12;102722.28;;;-5.31;100.00
1736;BME280;865;53.672;10.250;2022-12-18T10:51:24;102716.44;;;-5.18;100.00
1736;BME280;865;53.672;10.250;2022-12-18T10:53:54;102715.16;;;-5.13;100.00
1736;BME280;865;53.672;10.250;2022-12-18T10:56:21;102717.50;;;-5.05;100.00
1736;BME280;865;53.672;10.250;2022-12-18T10:59:01;102702.69;;;-4.98;100.00
1736;BME280;865;53.672;10.250;2022-12-18T11:01:52;102689.13;;;-4.87;100.00
1736;BME280;865;53.672;10.250;2022-12-18T11:04:29;102693.09;;;-4.79;100.00
1736;BME280;865;53.672;10.250;2022-12-18T11:07:01;102706.97;;;-4.75;100.00
1736;BME280;865;53.672;10.250;2022-12-18T11:09:34;102703.19;;;-4.69;100.00
1736;BME280;865;53.672;10.250;2022-12-18T11:12:04;102694.91;;;-4.54;100.00
1736;BME280;865;53.672;10.250;2022-12-18T11:14:34;102700.00;;;-4.54;100.00
1736;BME280;865;53.672;10.250;2022-12-18T11:19:57;102690.06;;;-4.51;100.00
1736;BME280;865;53.672;10.250;2022-12-18T11:22:28;102693.56;;;-4.38;100.00
1736;BME280;865;53.672;10.250;2022-12-18T11:25:02;102693.91;;;-4.33;100.00
1736;BME280;865;53.672;10.250;2022-12-18T11:27:55;102682.06;;;-4.32;100.00
1736;BME280;865;53.672;10.250;2022-12-18T11:30:28;102665.34;;;-4.29;100.00
1736;BME280;865;53.672;10.250;2022-12-18T11:33:10;102673.41;;;-4.23;100.00
1736;BME280;865;53.672;10.250;2022-12-18T11:35:51;102675.50;;;-4.17;100.00
1736;BME280;865;53.672;10.250;2022-12-18T11:38:45;102672.97;;;-4.17;100.00
1736;BME280;865;53.672;10.250;2022-12-18T11:41:34;102656.59;;;-4.21;100.00
1736;BME280;865;53.672;10.250;2022-12-18T11:44:26;102660.00;;;-4.08;100.00
1736;BME280;865;53.672;10.250;2022-12-18T11:47:01;102662.44;;;-3.98;100.00
1736;BME280;865;53.672;10.250;2022-12-18T11:49:34;102659.88;;;-3.98;100.00
1736;BME280;865;53.672;10.250;2022-12-18T11:52:21;102658.22;;;-3.98;100.00
1736;BME280;865;53.672;10.250;2022-12-18T11:54:51;102659.72;;;-3.88;100.00
1736;BME280;865;53.672;10.250;2022-12-18T12:00:20;102654.44;;;-3.91;100.00
1736;BME280;865;53.672;10.250;2022-12-18T12:08:22;102649.66;;;-3.86;100.00
1736;BME280;865;53.672;10.250;2022-12-18T12:11:10;102651.44;;;-3.97;100.00
1736;BME280;865;53.672;10.250;2022-12-18T12:16:37;102634.91;;;-3.91;100.00
1736;BME280;865;53.672;10.250;2022-12-18T12:38:52;102601.69;;;-3.92;100.00
1736;BME280;865;53.672;10.250;2022-12-18T12:41:24;102595.63;;;-3.81;100.00
1736;BME280;865;53.672;10.250;2022-12-18T12:44:27;102594.28;;;-3.76;100.00
1736;BME280;865;53.672;10.250;2022-12-18T12:46:57;102587.66;;;-3.74;100.00
1736;BME280;865;53.672;10.250;2022-12-18T12:49:29;102579.31;;;-3.71;100.00
1736;BME280;865;53.672;10.250;2022-12-18T12:52:14;102579.38;;;-3.83;100.00
1736;BME280;865;53.672;10.250;2022-12-18T12:54:42;102582.88;;;-3.81;100.00
1736;BME280;865;53.672;10.250;2022-12-18T12:57:23;102574.16;;;-3.84;100.00
1736;BME280;865;53.672;10.250;2022-12-18T13:00:15;102560.69;;;-3.95;100.00
1736;BME280;865;53.672;10.250;2022-12-18T13:03:07;102562.47;;;-3.94;100.00
1736;BME280;865;53.672;10.250;2022-12-18T13:05:43;102550.28;;;-3.98;100.00
1736;BME280;865;53.672;10.250;2022-12-18T13:08:25;102549.00;;;-4.17;100.00
1736;BME280;865;53.672;10.250;2022-12-18T13:10:54;102549.53;;;-4.09;100.00
1736;BME280;865;53.672;10.250;2022-12-18T13:13:53;102542.06;;;-4.19;100.00
1736;BME280;865;53.672;10.250;2022-12-18T13:16:21;102546.47;;;-4.17;100.00
1736;BME280;865;53.672;10.250;2022-12-18T13:18:53;102550.28;;;-4.35;100.00
1736;BME280;865;53.672;10.250;2022-12-18T13:21:24;102554.81;;;-4.31;100.00
1736;BME280;865;53.672;10.250;2022-12-18T13:23:51;102536.66;;;-4.36;100.00
1736;BME280;865;53.672;10.250;2022-12-18T13:28:54;102545.13;;;-4.48;100.00
1736;BME280;865;53.672;10.250;2022-12-18T13:34:21;102553.50;;;-4.49;100.00
1736;BME280;865;53.672;10.250;2022-12-18T13:36:55;102557.41;;;-4.43;100.00
1736;BME280;865;53.672;10.250;2022-12-18T13:39:24;102564.81;;;-4.34;100.00
1736;BME280;865;53.672;10.250;2022-12-18T13:44:36;102559.53;;;-4.49;100.00
1736;BME280;865;53.672;10.250;2022-12-18T13:47:26;102556.41;;;-4.56;100.00
1736;BME280;865;53.672;10.250;2022-12-18T13:49:54;102557.41;;;-4.54;100.00
1736;BME280;865;53.672;10.250;2022-12-18T13:52:25;102550.25;;;-4.72;100.00
1736;BME280;865;53.672;10.250;2022-12-18T13:54:54;102550.69;;;-4.89;100.00
1736;BME280;865;53.672;10.250;2022-12-18T13:59:54;102567.06;;;-4.86;100.00
1736;BME280;865;53.672;10.250;2022-12-18T14:02:27;102571.50;;;-4.83;100.00
1736;BME280;865;53.672;10.250;2022-12-18T14:04:54;102568.94;;;-4.95;100.00
1736;BME280;865;53.672;10.250;2022-12-18T14:07:24;102575.56;;;-4.97;100.00
1736;BME280;865;53.672;10.250;2022-12-18T14:09:57;102575.03;;;-5.05;100.00
1736;BME280;865;53.672;10.250;2022-12-18T14:12:48;102578.34;;;-5.06;100.00
1736;BME280;865;53.672;10.250;2022-12-18T14:15:33;102574.69;;;-5.09;100.00
1736;BME280;865;53.672;10.250;2022-12-18T14:18:03;102564.94;;;-5.15;100.00
1736;BME280;865;53.672;10.250;2022-12-18T14:20:39;102560.09;;;-5.23;100.00
1736;BME280;865;53.672;10.250;2022-12-18T14:23:39;102560.41;;;-5.19;100.00
1736;BME280;865;53.672;10.250;2022-12-18T14:26:22;102554.31;;;-5.21;100.00
1736;BME280;865;53.672;10.250;2022-12-18T14:28:49;102548.69;;;-5.17;100.00
1736;BME280;865;53.672;10.250;2022-12-18T14:31:24;102551.25;;;-5.17;100.00
1736;BME280;865;53.672;10.250;2022-12-18T14:33:52;102557.66;;;-5.10;100.00
1736;BME280;865;53.672;10.250;2022-12-18T14:36:21;102559.31;;;-5.11;100.00